createdAt,value
2018-07-27T00:00:39.741Z,24.59
2018-07-27T00:03:07.497Z,24.76
2018-07-27T00:05:35.098Z,24.69
2018-07-27T00:08:02.747Z,24.61
2018-07-27T00:10:36.061Z,24.39
2018-07-27T00:13:03.796Z,24.28
2018-07-27T00:15:31.478Z,24.06
2018-07-27T00:17:59.121Z,24.19
2018-07-27T00:20:26.761Z,24.24
2018-07-27T00:22:54.397Z,24.06
2018-07-27T00:25:21.984Z,24.14
2018-07-27T00:27:49.669Z,24.00
2018-07-27T00:30:17.233Z,24.08
2018-07-27T00:32:44.857Z,23.83
2018-07-27T00:35:12.574Z,23.74
2018-07-27T00:37:40.145Z,23.75
2018-07-27T00:40:07.897Z,23.85
2018-07-27T00:42:35.530Z,23.97
2018-07-27T00:45:03.599Z,23.91
2018-07-27T00:47:31.324Z,23.93
2018-07-27T00:49:58.916Z,24.01
2018-07-27T00:52:26.567Z,24.09
2018-07-27T00:54:54.361Z,24.19
2018-07-27T00:57:21.950Z,24.24
2018-07-27T00:59:49.536Z,24.12
2018-07-27T01:02:17.201Z,24.14
2018-07-27T01:04:44.890Z,24.13
2018-07-27T01:07:12.693Z,24.10
2018-07-27T01:09:40.305Z,24.13
2018-07-27T01:12:08.081Z,24.15
2018-07-27T01:14:35.769Z,24.17
2018-07-27T01:17:03.464Z,24.02
2018-07-27T01:19:31.193Z,23.78
2018-07-27T01:21:58.889Z,23.21
2018-07-27T01:24:26.633Z,23.02
2018-07-27T01:26:54.277Z,23.05
2018-07-27T01:29:21.924Z,23.09
2018-07-27T01:31:49.545Z,23.19
2018-07-27T01:34:17.284Z,23.43
2018-07-27T01:36:44.928Z,23.42
2018-07-27T01:39:14.045Z,23.29
2018-07-27T01:41:42.228Z,23.20
2018-07-27T01:44:10.197Z,22.84
2018-07-27T01:46:38.169Z,22.87
2018-07-27T01:49:06.921Z,22.70
2018-07-27T01:51:34.613Z,22.68
2018-07-27T01:54:02.292Z,22.71
2018-07-27T01:56:30.021Z,22.76
2018-07-27T01:58:57.690Z,22.85
2018-07-27T02:01:25.342Z,22.74
2018-07-27T02:03:53.286Z,22.63
2018-07-27T02:06:21.009Z,22.50
2018-07-27T02:08:48.628Z,22.51
2018-07-27T02:11:16.382Z,22.51
2018-07-27T02:13:50.669Z,22.52
2018-07-27T02:16:18.425Z,22.52
2018-07-27T02:18:46.052Z,22.46
2018-07-27T02:21:13.653Z,22.54
2018-07-27T02:23:41.331Z,22.43
2018-07-27T02:26:09.025Z,22.33
2018-07-27T02:28:36.690Z,22.43
2018-07-27T02:31:04.828Z,22.37
2018-07-27T02:33:32.470Z,22.31
2018-07-27T02:36:00.225Z,22.26
2018-07-27T02:38:27.849Z,22.29
2018-07-27T02:40:55.545Z,22.30
2018-07-27T02:43:23.208Z,22.29
2018-07-27T02:45:50.891Z,22.22
2018-07-27T02:48:18.665Z,22.25
2018-07-27T02:50:46.325Z,22.39
2018-07-27T02:53:14.082Z,22.33
2018-07-27T02:55:41.868Z,22.27
2018-07-27T02:58:09.581Z,22.24
2018-07-27T03:00:37.260Z,22.22
2018-07-27T03:03:04.885Z,22.27
2018-07-27T03:05:32.566Z,22.25
2018-07-27T03:08:00.229Z,22.43
2018-07-27T03:10:36.346Z,22.43
2018-07-27T03:13:04.114Z,22.52
2018-07-27T03:15:31.757Z,22.68
2018-07-27T03:17:59.523Z,22.66
2018-07-27T03:20:27.154Z,22.66
2018-07-27T03:22:54.778Z,22.57
2018-07-27T03:25:22.421Z,22.59
2018-07-27T03:27:50.153Z,22.23
2018-07-27T03:30:17.865Z,22.31
2018-07-27T03:32:45.617Z,22.24
2018-07-27T03:35:13.254Z,21.94
2018-07-27T03:37:41.016Z,21.70
2018-07-27T03:40:08.826Z,21.63
2018-07-27T03:42:36.480Z,21.72
2018-07-27T03:45:04.267Z,21.71
2018-07-27T03:47:32.069Z,21.84
2018-07-27T03:49:59.715Z,21.85
2018-07-27T03:52:27.485Z,21.84
2018-07-27T03:54:55.190Z,21.70
2018-07-27T03:57:22.921Z,21.66
2018-07-27T03:59:50.584Z,21.77
2018-07-27T04:02:18.335Z,21.67
2018-07-27T04:04:46.037Z,21.68
2018-07-27T04:07:13.760Z,21.77
2018-07-27T04:09:41.442Z,21.57
2018-07-27T04:12:09.137Z,21.42
2018-07-27T04:14:36.776Z,21.40
2018-07-27T04:17:04.465Z,21.44
2018-07-27T04:19:32.202Z,21.48
2018-07-27T04:21:59.875Z,21.57
2018-07-27T04:24:27.681Z,21.55
2018-07-27T04:26:55.364Z,21.55
2018-07-27T04:29:23.326Z,21.54
2018-07-27T04:31:51.034Z,21.60
2018-07-27T04:34:18.673Z,21.71
2018-07-27T04:36:46.384Z,21.74
2018-07-27T04:39:14.121Z,21.77
2018-07-27T04:41:41.895Z,21.75
2018-07-27T04:44:09.635Z,21.78
2018-07-27T04:46:37.305Z,21.82
2018-07-27T04:49:05.205Z,21.78
2018-07-27T04:51:33.129Z,21.75
2018-07-27T04:54:01.018Z,21.76
2018-07-27T04:56:28.836Z,21.93
2018-07-27T04:58:56.453Z,21.97
2018-07-27T05:01:24.207Z,21.94
2018-07-27T05:03:51.865Z,22.19
2018-07-27T05:06:19.517Z,22.35
2018-07-27T05:08:52.890Z,22.29
2018-07-27T05:11:20.611Z,22.29
2018-07-27T05:13:48.214Z,22.36
2018-07-27T05:16:15.917Z,22.24
2018-07-27T05:18:43.566Z,22.12
2018-07-27T05:21:11.241Z,22.07
2018-07-27T05:23:39.005Z,22.37
2018-07-27T05:26:06.780Z,22.62
2018-07-27T05:28:34.521Z,22.71
2018-07-27T05:31:02.213Z,23.16
2018-07-27T05:33:29.986Z,23.41
2018-07-27T05:35:57.704Z,23.72
2018-07-27T05:38:25.381Z,23.76
2018-07-27T05:40:53.088Z,23.53
2018-07-27T05:43:20.753Z,23.83
2018-07-27T05:45:48.494Z,24.05
2018-07-27T05:48:16.430Z,24.02
2018-07-27T05:50:44.119Z,24.39
2018-07-27T05:53:11.897Z,24.34
2018-07-27T05:55:39.563Z,24.09
2018-07-27T05:58:07.321Z,24.57
2018-07-27T06:00:34.963Z,24.61
2018-07-27T06:03:02.682Z,24.97
2018-07-27T06:05:30.304Z,25.05
2018-07-27T06:07:58.056Z,25.59
2018-07-27T06:10:25.709Z,25.77
2018-07-27T06:12:53.425Z,25.77
2018-07-27T06:15:21.208Z,25.73
2018-07-27T06:17:48.952Z,25.99
2018-07-27T06:20:16.785Z,26.57
2018-07-27T06:22:44.461Z,27.09
2018-07-27T06:25:12.208Z,27.25
2018-07-27T06:27:39.997Z,27.85
2018-07-27T06:30:07.757Z,27.51
2018-07-27T06:32:35.517Z,27.83
2018-07-27T06:35:03.277Z,28.10
2018-07-27T06:37:31.032Z,27.44
2018-07-27T06:39:59.264Z,27.11
2018-07-27T06:42:26.911Z,26.85
2018-07-27T06:44:54.673Z,26.58
2018-07-27T06:47:22.391Z,27.92
2018-07-27T06:49:50.090Z,27.72
2018-07-27T06:52:17.838Z,28.54
2018-07-27T06:54:45.640Z,28.79
2018-07-27T06:57:13.358Z,29.17
2018-07-27T06:59:41.120Z,29.88
2018-07-27T07:02:08.753Z,29.75
2018-07-27T07:04:36.415Z,29.37
2018-07-27T07:07:04.106Z,29.14
2018-07-27T07:09:31.754Z,29.98
2018-07-27T07:11:59.461Z,28.88
2018-07-27T07:14:27.131Z,29.54
2018-07-27T07:16:54.866Z,30.00
2018-07-27T07:19:22.538Z,30.64
2018-07-27T07:21:50.318Z,30.90
2018-07-27T07:24:18.159Z,31.01
2018-07-27T07:26:45.829Z,30.98
2018-07-27T07:29:13.578Z,30.61
2018-07-27T07:31:41.264Z,30.64
2018-07-27T07:34:08.929Z,30.63
2018-07-27T07:36:36.674Z,31.12
2018-07-27T07:39:08.314Z,31.48
2018-07-27T07:41:36.214Z,31.63
2018-07-27T07:44:04.301Z,31.46
2018-07-27T07:46:31.977Z,31.70
2018-07-27T07:49:04.113Z,32.05
2018-07-27T07:51:32.908Z,32.32
2018-07-27T07:54:00.569Z,31.92
2018-07-27T07:56:28.298Z,31.32
2018-07-27T07:58:55.959Z,31.81
2018-07-27T08:01:23.646Z,32.13
2018-07-27T08:03:51.418Z,31.98
2018-07-27T08:06:19.072Z,32.39
2018-07-27T08:08:46.877Z,32.63
2018-07-27T08:11:14.643Z,32.74
2018-07-27T08:13:42.380Z,32.66
2018-07-27T08:16:10.242Z,32.46
2018-07-27T08:18:37.908Z,32.21
2018-07-27T08:21:05.889Z,32.82
2018-07-27T08:23:33.637Z,33.11
2018-07-27T08:26:16.585Z,33.33
2018-07-27T08:28:44.549Z,33.38
2018-07-27T08:31:12.213Z,33.61
2018-07-27T08:33:39.953Z,33.77
2018-07-27T08:36:07.730Z,33.87
2018-07-27T08:38:35.368Z,33.85
2018-07-27T08:41:03.037Z,33.56
2018-07-27T08:43:30.810Z,33.53
2018-07-27T08:45:58.466Z,33.38
2018-07-27T08:48:26.261Z,33.76
2018-07-27T08:50:53.932Z,34.07
2018-07-27T08:53:21.682Z,34.01
2018-07-27T08:55:49.371Z,34.08
2018-07-27T08:58:17.093Z,34.02
2018-07-27T09:00:54.381Z,33.58
2018-07-27T09:03:22.097Z,34.06
2018-07-27T09:05:49.874Z,34.20
2018-07-27T09:08:17.641Z,34.23
2018-07-27T09:10:45.352Z,34.40
2018-07-27T09:13:13.126Z,34.24
2018-07-27T09:15:40.858Z,33.81
2018-07-27T09:18:08.764Z,34.24
2018-07-27T09:20:36.538Z,34.59
2018-07-27T09:23:04.302Z,34.87
2018-07-27T09:25:33.030Z,35.06
2018-07-27T09:28:00.766Z,35.06
2018-07-27T09:30:28.994Z,35.11
2018-07-27T09:32:56.905Z,35.34
2018-07-27T09:35:24.826Z,35.46
2018-07-27T09:37:52.488Z,35.50
2018-07-27T09:40:20.393Z,35.55
2018-07-27T09:42:48.054Z,35.64
2018-07-27T09:45:15.801Z,35.61
2018-07-27T09:47:43.489Z,35.62
2018-07-27T09:50:11.237Z,35.57
2018-07-27T09:52:38.919Z,35.61
2018-07-27T09:55:06.601Z,35.69
2018-07-27T09:57:34.378Z,35.81
2018-07-27T10:00:02.082Z,35.91
2018-07-27T10:02:29.793Z,35.74
2018-07-27T10:04:57.548Z,35.69
2018-07-27T10:07:25.297Z,35.71
2018-07-27T10:09:53.042Z,35.63
2018-07-27T10:12:20.785Z,35.71
2018-07-27T10:14:48.493Z,35.74
2018-07-27T10:17:16.233Z,35.67
2018-07-27T10:19:44.103Z,35.95
2018-07-27T10:22:11.869Z,35.99
2018-07-27T10:24:39.609Z,35.91
2018-07-27T10:27:07.253Z,35.93
2018-07-27T10:29:34.920Z,35.88
2018-07-27T10:32:02.887Z,35.83
2018-07-27T10:34:30.558Z,35.83
2018-07-27T10:36:58.231Z,35.72
2018-07-27T10:39:25.902Z,35.89
2018-07-27T10:41:53.674Z,35.92
2018-07-27T10:44:21.375Z,35.98
2018-07-27T10:46:49.095Z,35.99
2018-07-27T10:49:17.001Z,36.08
2018-07-27T10:51:44.732Z,36.15
2018-07-27T10:54:12.498Z,36.24
2018-07-27T10:56:40.273Z,36.49
2018-07-27T10:59:08.517Z,36.63
2018-07-27T11:01:36.350Z,36.42
2018-07-27T11:04:04.070Z,36.20
2018-07-27T11:06:31.739Z,36.20
2018-07-27T11:08:59.789Z,36.48
2018-07-27T11:11:27.613Z,36.58
2018-07-27T11:13:55.305Z,36.32
2018-07-27T11:16:23.037Z,36.42
2018-07-27T11:18:50.649Z,36.52
2018-07-27T11:21:18.299Z,36.76
2018-07-27T11:23:45.996Z,36.89
2018-07-27T11:26:13.674Z,36.81
2018-07-27T11:28:41.401Z,36.58
2018-07-27T11:31:09.082Z,36.68
2018-07-27T11:33:36.811Z,36.86
2018-07-27T11:36:04.545Z,36.99
2018-07-27T11:38:32.221Z,36.72
2018-07-27T11:40:59.950Z,36.80
2018-07-27T11:43:27.689Z,36.75
2018-07-27T11:45:55.498Z,36.90
2018-07-27T11:48:23.209Z,37.04
2018-07-27T11:50:50.873Z,37.17
2018-07-27T11:53:18.635Z,37.43
2018-07-27T11:55:46.409Z,37.68
2018-07-27T11:58:14.074Z,37.69
2018-07-27T12:00:41.830Z,37.12
2018-07-27T12:03:09.481Z,37.40
2018-07-27T12:05:37.141Z,37.50
2018-07-27T12:08:04.942Z,38.00
2018-07-27T12:10:36.782Z,38.23
2018-07-27T12:13:05.065Z,38.43
2018-07-27T12:15:32.817Z,38.83
2018-07-27T12:18:00.462Z,38.67
2018-07-27T12:20:28.407Z,38.74
2018-07-27T12:22:55.993Z,39.39
2018-07-27T12:25:23.757Z,39.70
2018-07-27T12:27:51.458Z,40.28
2018-07-27T12:30:19.139Z,40.86
2018-07-27T12:32:46.845Z,40.53
2018-07-27T12:35:14.477Z,40.52
2018-07-27T12:37:42.170Z,40.39
2018-07-27T12:40:09.888Z,40.41
2018-07-27T12:42:37.638Z,40.94
2018-07-27T12:45:05.372Z,40.84
2018-07-27T12:47:33.053Z,41.05
2018-07-27T12:50:01.081Z,41.18
2018-07-27T12:52:28.844Z,41.38
2018-07-27T12:54:56.498Z,41.62
2018-07-27T12:57:24.232Z,41.61
2018-07-27T12:59:51.974Z,41.64
2018-07-27T13:02:19.630Z,41.64
2018-07-27T13:04:47.397Z,41.64
2018-07-27T13:07:15.143Z,41.61
2018-07-27T13:09:42.979Z,41.25
2018-07-27T13:12:10.666Z,41.11
2018-07-27T13:14:38.391Z,41.27
2018-07-27T13:17:06.209Z,41.38
2018-07-27T13:19:33.859Z,41.53
2018-07-27T13:22:02.146Z,40.72
2018-07-27T13:26:57.485Z,40.71
2018-07-27T13:29:25.254Z,40.60
2018-07-27T13:31:54.955Z,39.44
2018-07-27T13:35:03.532Z,39.22
2018-07-27T13:37:32.574Z,39.25
2018-07-27T13:40:01.408Z,39.28
2018-07-27T13:42:30.348Z,39.41
2018-07-27T13:44:58.062Z,39.26
2018-07-27T13:47:25.741Z,39.23
2018-07-27T13:49:53.666Z,38.82
2018-07-27T13:52:21.394Z,38.86
2018-07-27T13:54:49.125Z,39.19
2018-07-27T13:57:17.146Z,39.33
2018-07-27T13:59:45.053Z,39.44
2018-07-27T14:02:13.085Z,38.93
2018-07-27T14:04:40.921Z,38.14
2018-07-27T14:07:09.646Z,37.73
2018-07-27T14:09:37.427Z,37.80
2018-07-27T14:12:05.325Z,38.01
2018-07-27T14:14:33.034Z,37.92
2018-07-27T14:17:00.750Z,38.06
2018-07-27T14:19:29.071Z,38.04
2018-07-27T14:21:56.858Z,38.07
2018-07-27T14:24:24.558Z,37.82
2018-07-27T14:26:52.333Z,37.70
2018-07-27T14:29:20.109Z,37.75
2018-07-27T14:31:47.849Z,37.74
2018-07-27T14:34:15.625Z,37.82
2018-07-27T14:36:43.293Z,37.83
2018-07-27T14:39:12.740Z,37.31
2018-07-27T14:41:40.818Z,37.44
2018-07-27T14:44:08.509Z,37.21
2018-07-27T14:46:36.481Z,37.19
2018-07-27T14:49:11.466Z,37.54
2018-07-27T14:51:39.746Z,37.26
2018-07-27T14:54:11.710Z,37.16
2018-07-27T14:56:40.191Z,37.10
2018-07-27T14:59:08.576Z,37.04
2018-07-27T15:01:36.546Z,37.12
2018-07-27T15:04:04.320Z,37.40
2018-07-27T15:06:32.065Z,37.40
2018-07-27T15:08:59.777Z,37.64
2018-07-27T15:11:27.451Z,37.66
2018-07-27T15:13:55.191Z,37.63
2018-07-27T15:16:22.963Z,37.54
2018-07-27T15:18:50.636Z,37.61
2018-07-27T15:21:18.413Z,37.78
2018-07-27T15:23:46.072Z,37.87
2018-07-27T15:26:13.939Z,37.95
2018-07-27T15:28:41.621Z,38.08
2018-07-27T15:31:09.373Z,38.02
2018-07-27T15:33:36.996Z,38.09
2018-07-27T15:36:04.878Z,38.09
2018-07-27T15:38:32.597Z,38.06
2018-07-27T15:41:00.597Z,38.05
2018-07-27T15:43:28.282Z,38.10
2018-07-27T15:45:55.993Z,38.19
2018-07-27T15:48:23.980Z,38.18
2018-07-27T15:50:51.676Z,38.22
2018-07-27T15:53:19.389Z,38.35
2018-07-27T15:55:47.113Z,38.20
2018-07-27T15:58:14.816Z,38.21
2018-07-27T16:00:42.500Z,38.10
2018-07-27T16:03:10.273Z,37.66
2018-07-27T16:05:37.949Z,37.68
2018-07-27T16:08:06.026Z,37.90
2018-07-27T16:10:36.326Z,38.00
2018-07-27T16:13:04.134Z,37.87
2018-07-27T16:15:31.817Z,37.68
2018-07-27T16:17:59.502Z,37.64
2018-07-27T16:20:27.151Z,37.40
2018-07-27T16:22:54.853Z,37.46
2018-07-27T16:25:22.683Z,37.29
2018-07-27T16:27:50.349Z,37.34
2018-07-27T16:30:18.065Z,37.23
2018-07-27T16:32:45.776Z,37.23
2018-07-27T16:35:13.443Z,37.18
2018-07-27T16:37:41.289Z,37.15
2018-07-27T16:40:09.054Z,37.16
2018-07-27T16:42:36.737Z,36.90
2018-07-27T16:45:04.731Z,37.02
2018-07-27T16:47:32.371Z,36.61
2018-07-27T16:50:00.022Z,36.67
2018-07-27T16:52:27.720Z,36.48
2018-07-27T16:54:55.441Z,36.59
2018-07-27T16:57:23.093Z,36.66
2018-07-27T16:59:50.764Z,36.50
2018-07-27T17:02:18.429Z,36.49
2018-07-27T17:04:46.121Z,36.50
2018-07-27T17:07:13.786Z,36.60
2018-07-27T17:09:41.540Z,36.71
2018-07-27T17:12:09.241Z,36.70
2018-07-27T17:14:37.006Z,36.65
2018-07-27T17:17:04.706Z,36.57
2018-07-27T17:19:32.363Z,36.57
2018-07-27T17:22:00.029Z,36.57
2018-07-27T17:24:27.685Z,36.55
2018-07-27T17:26:55.399Z,36.52
2018-07-27T17:29:23.125Z,36.39
2018-07-27T17:31:50.942Z,36.33
2018-07-27T17:34:18.873Z,36.11
2018-07-27T17:36:46.637Z,36.07
2018-07-27T17:39:14.305Z,36.01
2018-07-27T17:41:42.082Z,35.99
2018-07-27T17:44:09.837Z,35.81
2018-07-27T17:46:37.712Z,35.81
2018-07-27T17:49:05.814Z,35.75
2018-07-27T17:51:33.445Z,35.72
2018-07-27T17:54:01.109Z,35.66
2018-07-27T17:56:28.757Z,35.60
2018-07-27T17:58:56.428Z,35.52
2018-07-27T18:01:24.914Z,35.38
2018-07-27T18:03:52.661Z,35.27
2018-07-27T18:06:20.378Z,35.17
2018-07-27T18:08:48.034Z,35.11
2018-07-27T18:11:15.767Z,35.11
2018-07-27T18:13:43.453Z,34.94
2018-07-27T18:16:11.097Z,34.87
2018-07-27T18:18:38.862Z,34.78
2018-07-27T18:21:06.790Z,34.70
2018-07-27T18:23:34.721Z,34.57
2018-07-27T18:26:02.494Z,34.57
2018-07-27T18:28:30.318Z,34.47
2018-07-27T18:30:57.976Z,34.38
2018-07-27T18:33:25.655Z,34.31
2018-07-27T18:35:53.418Z,34.27
2018-07-27T18:38:21.255Z,34.16
2018-07-27T18:40:48.954Z,34.06
2018-07-27T18:43:16.700Z,33.90
2018-07-27T18:45:44.341Z,33.79
2018-07-27T18:48:11.993Z,33.79
2018-07-27T18:50:39.681Z,33.74
2018-07-27T18:53:07.571Z,33.64
2018-07-27T18:55:35.213Z,33.65
2018-07-27T18:58:02.901Z,33.55
2018-07-27T19:00:30.561Z,33.46
2018-07-27T19:02:58.309Z,33.43
2018-07-27T19:05:26.010Z,33.35
2018-07-27T19:07:53.661Z,33.26
2018-07-27T19:10:36.208Z,33.22
2018-07-27T19:13:03.944Z,33.11
2018-07-27T19:15:31.601Z,33.00
2018-07-27T19:17:59.369Z,32.96
2018-07-27T19:20:27.044Z,32.75
2018-07-27T19:22:54.757Z,32.46
2018-07-27T19:25:22.552Z,32.35
2018-07-27T19:27:50.172Z,32.09
2018-07-27T19:30:17.848Z,31.96
2018-07-27T19:32:45.509Z,31.66
2018-07-27T19:35:13.168Z,31.59
2018-07-27T19:37:40.805Z,31.66
2018-07-27T19:40:08.512Z,31.63
2018-07-27T19:42:36.157Z,31.43
2018-07-27T19:45:05.010Z,31.39
2018-07-27T19:47:32.700Z,30.99
2018-07-27T19:50:00.361Z,31.05
2018-07-27T19:52:28.054Z,30.88
2018-07-27T19:54:55.797Z,30.62
2018-07-27T19:57:23.500Z,30.83
2018-07-27T19:59:51.137Z,30.54
2018-07-27T20:02:18.804Z,30.54
2018-07-27T20:04:46.601Z,30.55
2018-07-27T20:07:14.348Z,30.55
2018-07-27T20:09:42.148Z,30.26
2018-07-27T20:12:09.855Z,30.09
2018-07-27T20:14:37.528Z,30.24
2018-07-27T20:17:05.330Z,30.21
2018-07-27T20:19:32.979Z,29.95
2018-07-27T20:22:00.743Z,29.90
2018-07-27T20:24:28.388Z,29.86
2018-07-27T20:26:56.044Z,29.94
2018-07-27T20:29:23.816Z,29.83
2018-07-27T20:31:51.441Z,29.85
2018-07-27T20:34:19.466Z,29.83
2018-07-27T20:36:47.214Z,29.62
2018-07-27T20:39:14.895Z,29.45
2018-07-27T20:41:43.285Z,29.50
2018-07-27T20:44:11.096Z,29.49
2018-07-27T20:46:38.813Z,29.45
2018-07-27T20:49:06.725Z,29.29
2018-07-27T20:51:34.366Z,29.23
2018-07-27T20:54:02.047Z,29.03
2018-07-27T20:56:30.598Z,28.71
2018-07-27T20:58:58.316Z,28.87
2018-07-27T21:01:26.090Z,28.41
2018-07-27T21:03:53.746Z,28.17
2018-07-27T21:06:21.526Z,28.43
2018-07-27T21:08:49.291Z,28.64
2018-07-27T21:11:17.101Z,28.69
2018-07-27T21:13:44.897Z,28.67
2018-07-27T21:16:12.566Z,28.66
2018-07-27T21:18:40.339Z,28.58
2018-07-27T21:21:08.097Z,28.55
2018-07-27T21:23:35.781Z,28.28
2018-07-27T21:26:03.566Z,28.33
2018-07-27T21:28:31.292Z,28.35
2018-07-27T21:30:58.981Z,28.27
2018-07-27T21:33:26.757Z,28.30
2018-07-27T21:35:54.380Z,28.15
2018-07-27T21:38:22.157Z,27.73
2018-07-27T21:40:49.832Z,27.50
2018-07-27T21:45:51.905Z,27.52
2018-07-27T21:48:19.517Z,27.57
2018-07-27T21:50:47.261Z,27.50
2018-07-27T21:53:14.959Z,27.44
2018-07-27T21:55:42.605Z,27.66
2018-07-27T21:58:10.317Z,27.41
2018-07-27T22:00:38.077Z,27.40
2018-07-27T22:03:05.898Z,27.47
2018-07-27T22:05:33.992Z,27.51
2018-07-27T22:08:01.659Z,27.58
2018-07-27T22:10:29.371Z,27.68
2018-07-27T22:12:57.105Z,27.73
2018-07-27T22:15:26.225Z,27.79
2018-07-27T22:17:54.001Z,27.79
2018-07-27T22:20:22.850Z,27.79
2018-07-27T22:22:50.663Z,27.72
2018-07-27T22:25:18.380Z,27.69
2018-07-27T22:27:46.753Z,27.57
2018-07-27T22:30:14.451Z,27.56
2018-07-27T22:32:42.113Z,27.53
2018-07-27T22:35:09.874Z,27.46
2018-07-27T22:37:38.834Z,27.27
2018-07-27T22:40:07.529Z,27.01
2018-07-27T22:42:35.176Z,27.10
2018-07-27T22:45:03.178Z,26.69
2018-07-27T22:47:30.843Z,26.70
2018-07-27T22:49:58.570Z,26.67
2018-07-27T22:52:26.300Z,26.76
2018-07-27T22:54:54.109Z,26.68
2018-07-27T22:57:21.777Z,26.38
2018-07-27T22:59:49.433Z,26.38
2018-07-27T23:02:17.102Z,26.29
2018-07-27T23:04:44.791Z,26.38
2018-07-27T23:07:12.504Z,26.28
2018-07-27T23:09:40.449Z,26.19
2018-07-27T23:12:08.176Z,26.14
2018-07-27T23:14:35.953Z,26.37
2018-07-27T23:17:03.726Z,26.50
2018-07-27T23:19:31.407Z,26.49
2018-07-27T23:21:59.117Z,26.26
2018-07-27T23:24:26.753Z,26.01
2018-07-27T23:26:54.452Z,25.98
2018-07-27T23:29:22.113Z,26.00
2018-07-27T23:31:49.808Z,26.01
2018-07-27T23:34:17.520Z,26.06
2018-07-27T23:36:45.197Z,26.26
2018-07-27T23:39:13.691Z,26.20
2018-07-27T23:41:42.054Z,26.24
2018-07-27T23:44:09.794Z,26.19
2018-07-27T23:46:37.542Z,26.27
2018-07-27T23:49:05.273Z,26.18
2018-07-27T23:51:32.932Z,26.16
2018-07-27T23:54:00.806Z,26.16
2018-07-27T23:56:28.637Z,26.14
2018-07-27T23:58:56.333Z,26.12
